Time;durP1;ratioP1;P1;durP2;ratioP2;P2;SDS_P1;SDS_P2;PMS_P1;PMS_P2;Temp;Humidity;BMP_temperature;BMP_pressure;BME280_temperature;BME280_humidity;BME280_pressure;Samples;Min_cycle;Max_cycle;Signal;HPM_P1;HPM_P2
2022/06/09 00:01:40;;;;;;;3.75;3.33;;;;;;;26.05;49.73;99339.09;1682411;85;21054;-65
2022/06/09 00:04:16;;;;;;;5.97;3.77;;;;;;;26.04;49.71;99341.56;1665614;85;21018;-65
2022/06/09 00:08:11;;;;;;;4.67;4.28;;;;;;;26.06;49.79;99337.47;1888990;76;22594;-65
2022/06/09 00:10:42;;;;;;;4.20;3.45;;;;;;;26.02;49.78;99338.28;1852409;75;21033;-65
2022/06/09 00:13:08;;;;;;;5.62;3.50;;;;;;;26.01;49.76;99334.76;1821720;75;21126;-66
2022/06/09 00:15:35;;;;;;;4.65;3.65;;;;;;;26.00;49.83;99333.67;1853033;75;21008;-66
2022/06/09 00:18:03;;;;;;;4.08;3.30;;;;;;;26.00;49.80;99333.67;1849044;77;21033;-65
2022/06/09 00:20:30;;;;;;;3.60;3.30;;;;;;;25.98;49.77;99330.42;1859291;77;20955;-65
2022/06/09 00:22:57;;;;;;;3.70;3.37;;;;;;;25.96;49.90;99330.72;1846290;76;20917;-66
2022/06/09 00:25:24;;;;;;;5.03;3.85;;;;;;;25.96;49.85;99338.89;1820289;77;21200;-65
2022/06/09 00:27:51;;;;;;;3.70;3.40;;;;;;;25.95;49.90;99333.16;1843588;75;21075;-65
2022/06/09 00:30:17;;;;;;;4.20;3.80;;;;;;;25.95;49.91;99331.00;1841187;75;21490;-65
2022/06/09 00:32:45;;;;;;;3.70;3.40;;;;;;;25.94;49.92;99334.27;1824115;77;21097;-65
2022/06/09 00:35:12;;;;;;;6.05;3.50;;;;;;;25.94;49.94;99332.91;1840431;75;21039;-65
2022/06/09 00:37:39;;;;;;;4.80;3.77;;;;;;;25.94;50.01;99331.55;1820880;77;21114;-65
2022/06/09 00:40:09;;;;;;;3.60;3.30;;;;;;;25.93;50.02;99327.74;1841570;77;21006;-65
2022/06/09 00:42:35;;;;;;;3.98;3.58;;;;;;;25.93;50.06;99331.83;1853277;77;21469;-65
2022/06/09 00:45:36;;;;;;;3.85;3.55;;;;;;;25.92;50.12;99331.55;1821733;77;21478;-65
2022/06/09 00:48:12;;;;;;;3.83;3.50;;;;;;;25.90;50.18;99328.54;1834372;77;21001;-66
2022/06/09 00:50:39;;;;;;;4.22;3.80;;;;;;;25.88;50.13;99329.37;1839617;77;21098;-66
2022/06/09 00:53:11;;;;;;;4.65;3.42;;;;;;;25.88;50.20;99327.17;1855605;77;21038;-66
2022/06/09 00:55:39;;;;;;;3.90;3.50;;;;;;;25.87;50.23;99326.92;1849627;75;21008;-66
2022/06/09 00:58:10;;;;;;;4.08;3.67;;;;;;;25.85;50.23;99323.66;1849427;75;21049;-66
2022/06/09 01:00:58;;;;;;;4.35;3.80;;;;;;;25.86;50.26;99329.36;1856615;77;21470;-65
2022/06/09 01:03:28;;;;;;;6.20;3.33;;;;;;;25.84;50.28;99328.27;1857746;75;21356;-67
2022/06/09 01:06:00;;;;;;;4.92;3.90;;;;;;;25.82;50.35;99328.30;1838635;77;21103;-65
2022/06/09 01:08:28;;;;;;;;;;;;;;;25.81;50.42;99334.84;1843677;75;21040;-65
2022/06/09 01:10:55;;;;;;;4.08;3.60;;;;;;;25.80;50.47;99337.28;1821727;77;20616;-64
2022/06/09 01:13:22;;;;;;;3.92;3.52;;;;;;;25.78;50.55;99340.27;1840601;77;21500;-65
2022/06/09 01:16:09;;;;;;;3.98;3.58;;;;;;;25.79;50.66;99341.11;1842944;77;21132;-64
2022/06/09 01:19:15;;;;;;;5.90;4.47;;;;;;;25.78;50.44;99339.47;1846715;77;21048;-65
2022/06/09 01:21:47;;;;;;;4.00;3.60;;;;;;;25.76;50.77;99338.37;1823859;77;21582;-66
2022/06/09 01:24:37;;;;;;;4.60;3.92;;;;;;;25.76;50.63;99337.02;1799005;77;21084;-65
2022/06/09 01:27:44;;;;;;;5.22;3.50;;;;;;;25.77;50.61;99331.03;1840053;77;21056;-65
2022/06/09 01:30:20;;;;;;;5.08;3.90;;;;;;;25.76;50.76;99332.13;1839117;75;21147;-66
2022/06/09 01:33:07;;;;;;;3.87;3.58;;;;;;;25.75;50.82;99329.97;1853220;76;20998;-66
2022/06/09 01:35:48;;;;;;;5.50;3.77;;;;;;;25.75;50.84;99338.66;1858462;77;21025;-65
2022/06/09 01:38:15;;;;;;;5.40;4.33;;;;;;;25.74;50.95;99331.05;1828369;77;21021;-64
2022/06/09 01:40:43;;;;;;;4.22;3.55;;;;;;;25.74;50.84;99328.33;1835642;75;21065;-64
2022/06/09 01:43:09;;;;;;;5.72;4.22;;;;;;;25.73;50.91;99333.52;1819080;78;21153;-64
2022/06/09 01:46:00;;;;;;;4.25;3.92;;;;;;;25.74;50.88;99330.23;1819958;77;21117;-64
2022/06/09 01:48:27;;;;;;;5.80;4.30;;;;;;;25.73;50.87;99330.80;1823470;75;20996;-65
2022/06/09 01:51:13;;;;;;;4.70;3.80;;;;;;;25.73;50.95;99340.84;1832861;75;21016;-66
2022/06/09 01:53:51;;;;;;;4.83;3.95;;;;;;;25.70;50.95;99341.66;1843413;77;21076;-65
2022/06/09 01:56:52;;;;;;;5.37;4.45;;;;;;;25.70;50.96;99336.78;1820473;77;21174;-65
2022/06/09 01:59:36;;;;;;;4.25;3.85;;;;;;;25.70;51.02;99341.66;1854018;77;20951;-65
2022/06/09 02:02:11;;;;;;;5.87;3.72;;;;;;;25.67;50.98;99340.88;1856420;77;21019;-65
2022/06/09 02:04:42;;;;;;;4.80;3.67;;;;;;;25.66;51.17;99337.07;1858441;77;21005;-65
2022/06/09 02:07:10;;;;;;;;;;;;;;;25.65;51.12;99338.14;1842528;75;21021;-66
2022/06/09 02:09:37;;;;;;;5.45;4.15;;;;;;;25.66;51.16;99340.59;1843939;77;21052;-66
2022/06/09 02:12:09;;;;;;;4.60;4.15;;;;;;;25.64;51.11;99339.25;1840125;77;21040;-66
2022/06/09 02:14:37;;;;;;;4.40;4.00;;;;;;;25.62;51.24;99341.44;1852965;77;21029;-66
2022/06/09 02:17:06;;;;;;;6.87;4.85;;;;;;;25.60;51.19;99341.71;1825344;77;21024;-66
2022/06/09 02:19:35;;;;;;;5.03;4.53;;;;;;;25.61;51.27;99341.99;1824378;75;21558;-65
2022/06/09 02:22:04;;;;;;;4.47;3.98;;;;;;;25.61;51.22;99345.23;1829843;77;21136;-66
2022/06/09 02:24:32;;;;;;;4.45;4.05;;;;;;;25.59;51.28;99338.70;1794206;78;21592;-67
2022/06/09 02:26:59;;;;;;;4.92;4.33;;;;;;;25.59;51.33;99345.51;1823234;75;21504;-67
2022/06/09 02:29:26;;;;;;;4.83;4.33;;;;;;;25.58;51.34;99343.89;1840449;77;21473;-65
2022/06/09 02:31:54;;;;;;;5.47;4.10;;;;;;;25.59;51.31;99348.23;1830016;75;21020;-65
2022/06/09 02:34:21;;;;;;;7.10;5.17;;;;;;;25.59;51.34;99352.86;1863945;76;21114;-66
2022/06/09 02:36:47;;;;;;;5.40;3.95;;;;;;;25.59;51.46;99350.14;1833512;75;21028;-65
2022/06/09 02:39:15;;;;;;;4.37;3.87;;;;;;;25.58;51.45;99348.53;1843698;75;21072;-66
2022/06/09 02:41:43;;;;;;;7.17;4.17;;;;;;;25.58;51.48;99352.61;1832477;76;21001;-66
2022/06/09 02:44:09;;;;;;;4.95;4.47;;;;;;;25.58;51.46;99360.77;1828558;77;21353;-64
2022/06/09 02:46:36;;;;;;;7.10;4.10;;;;;;;25.57;51.48;99364.01;1850042;77;21808;-64
2022/06/09 02:49:03;;;;;;;4.12;3.70;;;;;;;25.58;51.57;99359.41;1825672;75;21049;-65
2022/06/09 02:51:35;;;;;;;4.55;4.15;;;;;;;25.59;51.54;99365.09;1819072;78;21061;-65
2022/06/09 02:54:04;;;;;;;5.97;5.03;;;;;;;25.58;51.75;99364.84;1821809;77;21025;-66
2022/06/09 02:56:32;;;;;;;6.00;4.00;;;;;;;25.59;51.57;99363.19;1859185;77;21549;-66
2022/06/09 02:58:59;;;;;;;4.45;4.05;;;;;;;25.60;51.73;99363.47;1859353;77;21138;-66
2022/06/09 03:01:26;;;;;;;7.30;4.05;;;;;;;25.61;51.82;99367.00;1859310;77;21009;-66
2022/06/09 03:03:53;;;;;;;5.10;3.98;;;;;;;25.62;51.81;99372.16;1863993;76;20987;-65
2022/06/09 03:06:20;;;;;;;4.70;4.17;;;;;;;25.64;51.60;99371.89;1859365;77;20982;-66
2022/06/09 03:08:48;;;;;;;4.92;3.90;;;;;;;25.65;51.81;99376.23;1849467;75;21056;-65
2022/06/09 03:11:15;;;;;;;5.42;4.33;;;;;;;25.67;51.53;99378.13;1850509;77;21153;-67
2022/06/09 03:13:43;;;;;;;4.92;3.77;;;;;;;25.67;51.59;99369.96;1847722;77;20982;-67
2022/06/09 03:16:11;;;;;;;4.87;4.05;;;;;;;25.69;51.63;99371.33;1858999;77;21002;-67
2022/06/09 03:18:37;;;;;;;5.00;4.00;;;;;;;25.69;51.53;99368.61;1858553;77;21045;-67
2022/06/09 03:21:04;;;;;;;7.78;4.10;;;;;;;25.72;51.58;99375.40;1829189;77;21087;-66
2022/06/09 03:23:31;;;;;;;4.55;4.15;;;;;;;25.73;51.62;99369.41;1843332;77;22008;-66
2022/06/09 03:25:59;;;;;;;6.22;3.83;;;;;;;25.73;51.31;99376.20;1848808;77;21099;-66
2022/06/09 03:28:25;;;;;;;4.65;4.22;;;;;;;25.74;51.37;99371.84;1835295;77;21486;-66
2022/06/09 03:30:52;;;;;;;4.28;3.80;;;;;;;25.75;51.39;99375.37;1859217;77;20998;-66
2022/06/09 03:33:18;;;;;;;5.65;3.90;;;;;;;25.76;51.28;99377.02;1842131;76;21005;-67
2022/06/09 03:35:45;;;;;;;4.35;4.00;;;;;;;25.76;50.75;99373.75;1863084;76;21183;-67
2022/06/09 03:38:12;;;;;;;4.87;4.08;;;;;;;25.76;50.95;99371.58;1861648;77;21048;-66
2022/06/09 03:40:40;;;;;;;5.67;3.95;;;;;;;25.78;50.34;99373.47;1851330;77;21551;-67
2022/06/09 03:43:06;;;;;;;6.58;4.17;;;;;;;25.77;50.38;99365.03;1825480;77;21544;-67
2022/06/09 03:45:33;;;;;;;4.55;4.10;;;;;;;25.79;50.74;99368.31;1844698;76;20970;-67
2022/06/09 03:48:01;;;;;;;4.55;4.15;;;;;;;25.79;50.69;99365.59;1827555;77;21118;-67
2022/06/09 03:50:30;;;;;;;4.95;3.92;;;;;;;25.81;50.77;99362.86;1859190;77;21009;-67
2022/06/09 03:52:57;;;;;;;4.50;3.95;;;;;;;25.82;50.42;99363.11;1845063;77;21004;-68
2022/06/09 03:55:23;;;;;;;5.40;4.30;;;;;;;25.83;50.37;99363.95;1820804;77;21024;-67
2022/06/09 03:57:51;;;;;;;4.20;3.80;;;;;;;25.84;49.98;99365.55;1822006;77;21071;-69
2022/06/09 04:00:23;;;;;;;5.35;4.35;;;;;;;25.84;49.92;99366.36;1857503;75;21662;-67
2022/06/09 04:02:51;;;;;;;5.97;3.87;;;;;;;25.85;50.35;99363.12;1856024;77;21294;-67
2022/06/09 04:05:18;;;;;;;4.90;4.25;;;;;;;25.86;50.01;99362.84;1857674;76;21040;-67
2022/06/09 04:07:44;;;;;;;4.05;3.62;;;;;;;25.87;49.92;99367.17;1844706;77;21019;-67
2022/06/09 04:10:19;;;;;;;5.05;3.98;;;;;;;25.88;50.10;99362.02;1831203;77;21074;-68
2022/06/09 04:12:46;;;;;;;5.17;4.10;;;;;;;25.89;50.18;99360.11;1833010;77;21120;-68
2022/06/09 04:15:14;;;;;;;4.33;3.90;;;;;;;25.90;49.66;99359.00;1836857;78;21012;-67
2022/06/09 04:17:42;;;;;;;4.15;3.45;;;;;;;25.90;49.50;99352.19;1833368;77;20992;-67
2022/06/09 04:20:10;;;;;;;4.80;3.80;;;;;;;25.92;49.30;99351.40;1802160;78;21053;-68
2022/06/09 04:22:37;;;;;;;6.03;3.85;;;;;;;25.92;49.14;99350.03;1784793;80;21009;-68
2022/06/09 04:25:05;;;;;;;4.33;3.37;;;;;;;25.94;48.95;99349.23;1783722;77;22437;-67
2022/06/09 04:27:32;;;;;;;4.70;3.67;;;;;;;25.95;48.82;99345.41;1796337;77;21587;-69
2022/06/09 04:29:58;;;;;;;4.03;3.55;;;;;;;25.96;48.58;99344.33;1801646;77;21501;-67
2022/06/09 04:32:26;;;;;;;7.28;3.95;;;;;;;25.97;48.59;99344.58;1832110;77;21491;-67
2022/06/09 04:34:53;;;;;;;5.72;3.60;;;;;;;25.99;48.53;99343.75;1832765;78;21027;-68
2022/06/09 04:37:20;;;;;;;6.00;3.65;;;;;;;26.01;48.28;99347.56;1804874;77;21122;-69
2022/06/09 04:39:46;;;;;;;6.67;4.00;;;;;;;26.02;48.19;99343.20;1817429;77;20986;-68
2022/06/09 04:42:13;;;;;;;3.60;3.30;;;;;;;26.04;48.30;99345.66;1815095;78;22030;-68
2022/06/09 04:44:39;;;;;;;4.37;3.33;;;;;;;26.06;48.60;99344.82;1754255;81;21077;-68
2022/06/09 04:47:06;;;;;;;4.85;3.12;;;;;;;26.07;48.34;99344.52;1819994;78;21000;-68
2022/06/09 04:49:33;;;;;;;3.75;3.08;;;;;;;26.11;48.08;99342.61;1819272;78;21549;-67
2022/06/09 04:51:59;;;;;;;4.65;2.92;;;;;;;26.12;48.20;99342.89;1817820;77;21040;-67
2022/06/09 04:54:26;;;;;;;4.17;3.05;;;;;;;26.13;48.09;99340.42;1783910;78;21080;-68
2022/06/09 04:56:52;;;;;;;5.75;2.92;;;;;;;26.15;47.72;99345.03;1784402;78;21021;-68
2022/06/09 04:59:19;;;;;;;4.28;3.20;;;;;;;26.17;47.64;99346.92;1816279;77;21057;-67
2022/06/09 05:01:46;;;;;;;4.12;2.83;;;;;;;26.19;47.59;99351.54;1792478;77;21191;-68
2022/06/09 05:04:14;;;;;;;4.90;3.25;;;;;;;26.20;47.94;99352.63;1813637;78;21576;-69
2022/06/09 05:06:42;;;;;;;3.52;2.80;;;;;;;26.22;48.26;99347.71;1817934;78;21473;-67
2022/06/09 05:09:09;;;;;;;5.90;3.85;;;;;;;26.24;47.86;99349.60;1818822;77;21020;-69
2022/06/09 05:11:36;;;;;;;3.55;3.02;;;;;;;26.25;47.96;99346.33;1806740;78;21036;-68
2022/06/09 05:14:04;;;;;;;3.92;3.30;;;;;;;26.26;48.14;99351.50;1818650;78;21045;-67
2022/06/09 05:16:30;;;;;;;3.30;3.00;;;;;;;26.27;47.92;99351.78;1811385;78;21484;-69
2022/06/09 05:18:57;;;;;;;5.95;3.30;;;;;;;26.29;47.81;99348.78;1797537;78;21014;-68
2022/06/09 05:21:23;;;;;;;4.45;3.37;;;;;;;26.31;47.87;99349.83;1798581;78;21072;-68
2022/06/09 05:23:50;;;;;;;5.03;3.62;;;;;;;26.30;47.94;99346.30;1817140;78;21073;-68
2022/06/09 05:26:17;;;;;;;3.85;3.47;;;;;;;26.32;48.03;99346.84;1811977;78;21500;-67
2022/06/09 05:28:43;;;;;;;3.72;3.42;;;;;;;26.33;48.04;99351.20;1826522;78;21020;-68
2022/06/09 05:31:11;;;;;;;5.95;3.50;;;;;;;26.35;48.08;99348.17;1830142;78;21017;-68
2022/06/09 05:33:37;;;;;;;3.30;3.00;;;;;;;26.35;48.04;99353.09;1803991;78;21074;-67
2022/06/09 05:36:06;;;;;;;4.92;3.20;;;;;;;26.36;48.07;99351.98;1830589;78;21022;-68
2022/06/09 05:46:49;;;;;;;3.72;3.35;;;;;;;26.40;48.14;99348.95;1819060;77;21005;-67
2022/06/09 05:49:16;;;;;;;4.45;3.37;;;;;;;26.41;48.11;99351.16;1829545;78;21032;-67
2022/06/09 05:51:47;;;;;;;4.87;3.17;;;;;;;26.42;48.05;99356.30;1825498;78;21016;-67
2022/06/09 05:54:14;;;;;;;4.20;3.12;;;;;;;26.43;48.06;99356.57;1815526;78;21535;-65
2022/06/09 05:56:41;;;;;;;4.62;3.40;;;;;;;26.44;48.06;99353.30;1784405;78;21115;-68
2022/06/09 05:59:08;;;;;;;3.70;2.95;;;;;;;26.45;48.04;99353.02;1796803;79;21048;-67
2022/06/09 06:01:34;;;;;;;3.65;3.20;;;;;;;26.46;47.99;99353.82;1803341;78;21036;-68
2022/06/09 06:04:04;;;;;;;3.33;2.62;;;;;;;26.47;47.91;99352.19;1818553;78;21134;-68
2022/06/09 06:06:33;;;;;;;3.40;2.98;;;;;;;26.47;47.83;99349.45;1830860;78;21044;-69
2022/06/09 06:09:06;;;;;;;3.72;3.30;;;;;;;26.48;47.84;99351.63;1825652;78;21023;-67
2022/06/09 06:11:35;;;;;;;5.33;3.30;;;;;;;26.51;47.78;99356.52;1804098;78;20978;-68
2022/06/09 06:14:03;;;;;;;4.42;3.10;;;;;;;26.51;47.71;99352.99;1758851;80;21019;-68
2022/06/09 06:16:30;;;;;;;6.22;3.15;;;;;;;26.51;47.49;99359.24;1781591;78;21132;-67
2022/06/09 06:18:58;;;;;;;4.80;2.95;;;;;;;26.52;47.46;99364.14;1774103;80;21037;-68
2022/06/09 06:21:24;;;;;;;3.25;2.92;;;;;;;26.53;47.47;99365.22;1805902;78;21010;-69
2022/06/09 06:23:51;;;;;;;3.15;2.62;;;;;;;26.54;47.45;99360.58;1821703;78;21025;-68
2022/06/09 06:26:18;;;;;;;3.67;3.00;;;;;;;26.54;47.51;99359.22;1807384;78;21552;-68
2022/06/09 06:28:45;;;;;;;4.55;3.40;;;;;;;26.55;47.62;99357.58;1817609;77;21134;-68
2022/06/09 06:31:12;;;;;;;3.98;3.12;;;;;;;26.56;47.73;99357.86;1811768;77;21073;-68
2022/06/09 06:33:38;;;;;;;4.37;2.92;;;;;;;26.58;47.84;99358.91;1779402;79;21030;-67
2022/06/09 06:36:07;;;;;;;4.72;2.77;;;;;;;26.59;47.85;99360.59;1817520;78;21013;-68
2022/06/09 06:38:33;;;;;;;4.37;3.33;;;;;;;26.59;47.96;99357.30;1779692;80;21359;-68
2022/06/09 06:41:02;;;;;;;3.75;2.72;;;;;;;26.60;47.88;99358.95;1765348;81;21915;-68
2022/06/09 06:43:30;;;;;;;3.77;2.85;;;;;;;26.60;47.82;99350.77;1772724;79;21047;-67
2022/06/09 06:45:56;;;;;;;4.33;2.83;;;;;;;26.62;47.82;99358.67;1806356;77;21006;-67
2022/06/09 06:48:23;;;;;;;6.65;3.20;;;;;;;26.63;47.80;99356.19;1789730;77;21026;-67
2022/06/09 06:50:51;;;;;;;4.30;2.90;;;;;;;26.64;47.74;99356.47;1811591;79;21017;-68
2022/06/09 06:53:17;;;;;;;4.42;2.70;;;;;;;26.65;47.93;99356.16;1809759;77;21172;-67
2022/06/09 06:55:45;;;;;;;5.85;3.55;;;;;;;26.69;47.93;99357.77;1811690;77;21041;-66
2022/06/09 06:58:12;;;;;;;8.53;3.00;;;;;;;26.71;48.04;99351.48;1803188;78;21525;-66
2022/06/09 07:00:38;;;;;;;5.53;3.83;;;;;;;26.73;48.11;99349.85;1806508;78;21057;-66
2022/06/09 07:03:07;;;;;;;6.45;3.00;;;;;;;26.76;48.15;99356.91;1805356;77;21088;-65
2022/06/09 07:05:34;;;;;;;6.97;3.52;;;;;;;26.79;48.27;99349.55;1806789;77;21095;-66
2022/06/09 07:08:03;;;;;;;6.60;3.47;;;;;;;26.81;48.43;99349.23;1812274;77;21040;-66
2022/06/09 07:10:32;;;;;;;9.18;3.08;;;;;;;26.82;48.43;99344.87;1805710;79;21088;-66
2022/06/09 07:12:59;;;;;;;5.65;3.83;;;;;;;26.83;48.49;99349.23;1791776;79;20998;-66
2022/06/09 07:15:26;;;;;;;9.40;3.77;;;;;;;26.85;48.64;99351.13;1803926;77;21053;-70
2022/06/09 07:17:54;;;;;;;10.13;3.85;;;;;;;26.86;48.82;99350.01;1773146;78;21211;-65
2022/06/09 07:20:21;;;;;;;7.30;3.40;;;;;;;26.88;48.76;99349.73;1786408;78;21560;-73
2022/06/09 07:22:47;;;;;;;10.03;3.10;;;;;;;26.90;48.64;99352.17;1787185;79;21035;-70
2022/06/09 07:25:19;;;;;;;8.03;3.65;;;;;;;26.92;48.50;99353.50;1798692;79;21029;-76
2022/06/09 07:27:47;;;;;;;9.13;3.92;;;;;;;26.95;48.08;99357.59;1789665;78;21584;-69
2022/06/09 07:30:14;;;;;;;9.85;3.85;;;;;;;26.96;48.26;99361.37;1789227;78;21121;-74
2022/06/09 07:32:41;;;;;;;8.93;3.02;;;;;;;26.97;48.34;99353.47;1790544;78;20985;-73
2022/06/09 07:35:09;;;;;;;5.87;2.77;;;;;;;27.00;48.46;99356.16;1800236;79;21055;-72
2022/06/09 07:37:36;;;;;;;5.95;3.45;;;;;;;27.02;48.23;99359.41;1779228;78;21029;-73
2022/06/09 07:40:06;;;;;;;4.95;2.90;;;;;;;27.04;47.45;99365.39;1779307;79;21016;-73
2022/06/09 07:42:33;;;;;;;8.35;2.80;;;;;;;27.02;46.97;99363.50;1791154;79;21113;-71
2022/06/09 07:44:59;;;;;;;5.05;3.45;;;;;;;27.02;46.65;99362.98;1795202;79;21612;-72
2022/06/09 07:47:26;;;;;;;4.40;3.00;;;;;;;27.05;46.29;99367.03;1785551;79;21040;-68
2022/06/09 07:49:52;;;;;;;3.67;2.75;;;;;;;27.05;46.19;99366.47;1777275;79;20984;-69
2022/06/09 07:52:19;;;;;;;5.55;2.80;;;;;;;27.07;46.17;99368.92;1775668;79;21106;-71
2022/06/09 07:54:46;;;;;;;4.17;2.70;;;;;;;27.10;46.65;99365.63;1786734;79;22384;-70
2022/06/09 07:57:13;;;;;;;7.03;2.65;;;;;;;27.11;45.88;99367.80;1782350;78;21053;-74
2022/06/09 07:59:40;;;;;;;5.85;3.20;;;;;;;27.10;45.17;99368.36;1793024;79;21075;-73
2022/06/09 08:02:06;;;;;;;9.38;4.30;;;;;;;27.11;45.08;99365.88;1791843;79;21047;-72
2022/06/09 08:04:34;;;;;;;7.65;3.72;;;;;;;27.11;45.16;99362.34;1780024;79;21073;-71
2022/06/09 08:07:02;;;;;;;4.67;3.17;;;;;;;27.12;45.21;99361.23;1794594;78;22061;-73
2022/06/09 08:09:29;;;;;;;3.47;2.50;;;;;;;27.12;44.63;99350.33;1781678;79;20993;-71
2022/06/09 08:11:58;;;;;;;4.92;2.60;;;;;;;27.12;44.27;99359.87;1790898;79;21020;-71
2022/06/09 08:14:25;;;;;;;3.65;2.33;;;;;;;27.13;44.12;99360.95;1792621;79;21064;-72
2022/06/09 08:16:52;;;;;;;4.22;2.47;;;;;;;27.13;43.71;99359.59;1804502;77;21173;-69
2022/06/09 08:19:19;;;;;;;3.12;2.25;;;;;;;27.14;43.65;99363.95;1770184;80;21538;-71
2022/06/09 08:21:46;;;;;;;2.52;2.17;;;;;;;27.16;43.64;99362.28;1780007;79;21029;-75
2022/06/09 08:24:13;;;;;;;2.33;2.12;;;;;;;27.18;43.57;99369.09;1821564;77;20999;-74
2022/06/09 08:26:40;;;;;;;2.67;2.47;;;;;;;27.20;43.42;99365.53;1816910;78;21560;-72
2022/06/09 08:29:08;;;;;;;3.42;2.50;;;;;;;27.21;43.57;99360.32;1789003;80;21025;-73
2022/06/09 08:31:36;;;;;;;3.22;2.50;;;;;;;27.24;43.65;99367.97;1820533;78;21565;-72
2022/06/09 08:34:02;;;;;;;5.80;3.00;;;;;;;27.26;43.45;99363.03;1786836;80;21048;-76
2022/06/09 08:36:30;;;;;;;9.33;5.03;;;;;;;27.28;43.29;99364.67;1797240;77;21029;-76
2022/06/09 08:38:57;;;;;;;6.50;4.55;;;;;;;27.26;43.14;99367.13;1767745;80;21037;-70
2022/06/09 08:41:41;;;;;;;6.05;3.98;;;;;;;27.28;43.28;99366.04;1783095;78;21537;-66
2022/06/09 08:44:16;;;;;;;4.40;3.72;;;;;;;27.28;43.34;99368.77;1777759;79;21305;-65
2022/06/09 08:47:05;;;;;;;5.10;3.10;;;;;;;27.29;43.63;99363.56;1778756;79;21000;-65
2022/06/09 08:49:59;;;;;;;4.20;2.95;;;;;;;27.30;43.65;99355.66;1781164;80;21066;-64
2022/06/09 08:52:51;;;;;;;3.65;3.35;;;;;;;27.31;44.07;99358.63;1782252;80;21536;-64
2022/06/09 08:55:41;;;;;;;4.03;3.60;;;;;;;27.31;44.18;99363.52;1779191;79;21539;-65
2022/06/09 08:58:19;;;;;;;4.47;3.30;;;;;;;27.31;44.19;99365.45;1779074;79;21089;-64
2022/06/09 09:01:03;;;;;;;6.35;3.12;;;;;;;27.32;44.28;99365.16;1770461;79;21029;-62
2022/06/09 09:03:52;;;;;;;20.45;4.55;;;;;;;27.31;44.27;99364.09;1745308;78;21108;-63
2022/06/09 09:06:27;;;;;;;5.87;3.47;;;;;;;27.32;44.71;99364.36;1786305;78;21062;-64
2022/06/09 09:09:17;;;;;;;6.00;3.45;;;;;;;27.33;44.55;99365.41;1785866;79;21044;-62
2022/06/09 09:12:24;;;;;;;5.97;3.05;;;;;;;27.34;44.69;99367.61;1776194;79;21039;-63
2022/06/09 09:15:28;;;;;;;7.50;3.37;;;;;;;27.34;45.05;99368.98;1755751;79;20986;-63
2022/06/09 09:18:15;;;;;;;4.60;3.27;;;;;;;27.34;45.04;99366.25;1765677;79;21089;-63
2022/06/09 09:21:00;;;;;;;9.03;3.12;;;;;;;27.34;45.17;99367.05;1779687;79;21077;-64
2022/06/09 09:23:59;;;;;;;5.90;4.05;;;;;;;27.34;45.27;99363.52;1766384;79;21073;-61
2022/06/09 09:26:30;;;;;;;4.25;3.40;;;;;;;27.35;45.45;99367.33;1779933;79;21101;-63
2022/06/09 09:29:42;;;;;;;6.95;3.92;;;;;;;27.36;45.58;99362.67;1766670;79;21509;-69
2022/06/09 09:32:14;;;;;;;4.08;3.10;;;;;;;27.38;46.14;99367.30;1796307;78;21090;-67
2022/06/09 09:34:44;;;;;;;6.17;3.20;;;;;;;27.37;45.04;99364.29;1797882;78;21060;-62
2022/06/09 09:37:31;;;;;;;8.28;3.87;;;;;;;27.39;43.50;99371.09;1804164;78;21037;-68
2022/06/09 13:02:29;;;;;;;5.60;3.15;;;;;;;28.07;47.98;99277.78;1783992;79;22566;-61
2022/06/09 13:05:03;;;;;;;4.85;3.27;;;;;;;28.16;48.08;99283.38;1755659;80;21086;-61
2022/06/09 13:07:32;;;;;;;5.75;3.60;;;;;;;28.29;48.08;99281.27;1719322;81;21250;-62
2022/06/09 13:10:18;;;;;;;5.15;3.80;;;;;;;28.41;48.06;99281.64;1703076;83;21019;-61
2022/06/09 13:12:52;;;;;;;3.33;3.02;;;;;;;28.51;47.99;99282.56;1705582;84;21042;-62
2022/06/09 13:15:33;;;;;;;4.80;3.40;;;;;;;28.60;47.90;99284.34;1692344;83;21730;-60
2022/06/09 13:18:14;;;;;;;3.40;3.05;;;;;;;28.70;47.39;99292.12;1697352;83;21053;-61
2022/06/09 13:20:50;;;;;;;4.50;3.00;;;;;;;28.79;46.88;99293.06;1710632;82;22312;-62
2022/06/09 13:23:17;;;;;;;4.47;3.15;;;;;;;28.86;46.28;99289.92;1683649;83;21124;-58
2022/06/09 13:25:45;;;;;;;3.33;3.02;;;;;;;28.91;45.87;99287.11;1718085;82;21359;-59
2022/06/09 13:28:23;;;;;;;3.80;3.20;;;;;;;28.94;45.45;99293.36;1721270;82;21108;-59
2022/06/09 13:30:52;;;;;;;4.28;3.62;;;;;;;28.96;45.14;99287.03;1701119;82;21123;-59
2022/06/09 13:33:46;;;;;;;4.85;2.98;;;;;;;28.98;45.03;99290.27;1710711;82;21168;-59
2022/06/09 13:36:30;;;;;;;4.60;3.20;;;;;;;28.99;44.99;99287.77;1699063;83;21585;-60
2022/06/09 13:38:59;;;;;;;4.45;3.15;;;;;;;28.99;44.94;99288.61;1711348;82;21593;-59
2022/06/09 13:41:33;;;;;;;3.58;3.27;;;;;;;28.99;44.73;99298.70;1719575;83;21092;-59
2022/06/09 13:44:08;;;;;;;3.40;3.10;;;;;;;28.99;44.47;99295.98;1720391;83;21069;-59
2022/06/09 13:46:39;;;;;;;6.28;3.05;;;;;;;28.98;44.35;99292.44;1691106;84;21822;-59
2022/06/09 13:49:19;;;;;;;3.65;3.20;;;;;;;28.98;44.27;99294.38;1665272;83;21046;-60
2022/06/09 13:52:03;;;;;;;7.30;3.27;;;;;;;28.96;43.90;99297.96;1678349;84;21113;-59
2022/06/09 13:54:34;;;;;;;3.33;3.05;;;;;;;28.95;44.25;99290.86;1659341;83;21125;-58
2022/06/09 13:57:04;;;;;;;5.12;3.42;;;;;;;28.95;44.25;99293.03;1677335;84;21069;-60
2022/06/09 13:59:32;;;;;;;3.47;3.17;;;;;;;28.94;44.28;99292.79;1683593;83;21789;-60
2022/06/09 14:01:58;;;;;;;5.47;3.02;;;;;;;28.93;44.42;99290.35;1683683;84;21014;-59
2022/06/09 14:04:30;;;;;;;4.17;3.08;;;;;;;28.93;44.44;99292.52;1682831;84;21585;-59
2022/06/09 14:06:58;;;;;;;3.10;2.80;;;;;;;28.93;44.34;99289.78;1658651;86;21064;-58
2022/06/09 14:09:24;;;;;;;5.20;3.10;;;;;;;28.92;44.22;99285.45;1675374;85;21038;-59
2022/06/09 14:11:53;;;;;;;3.55;3.12;;;;;;;28.92;44.15;99284.64;1682191;83;21366;-59
2022/06/09 14:14:21;;;;;;;3.83;3.25;;;;;;;28.91;43.94;99283.81;1685499;83;21077;-59
2022/06/09 14:16:47;;;;;;;6.20;3.22;;;;;;;28.90;44.05;99278.10;1683680;84;21591;-62
2022/06/09 14:19:16;;;;;;;3.27;3.05;;;;;;;28.88;44.19;99280.33;1685528;84;21057;-59
2022/06/09 14:21:43;;;;;;;3.25;2.90;;;;;;;28.88;44.05;99273.50;1679063;85;21186;-60
2022/06/09 14:24:18;;;;;;;3.92;3.12;;;;;;;28.87;43.87;99272.42;1677945;85;21158;-60
2022/06/09 14:26:47;;;;;;;6.03;3.17;;;;;;;28.88;43.92;99271.30;1698163;83;21025;-59
2022/06/09 14:29:15;;;;;;;4.08;3.25;;;;;;;28.86;44.02;99268.89;1659452;84;21107;-60
2022/06/09 14:31:44;;;;;;;5.78;3.40;;;;;;;28.86;44.03;99263.42;1679985;85;21089;-59
2022/06/09 14:34:12;;;;;;;4.53;3.25;;;;;;;28.86;44.08;99272.16;1678805;84;21058;-58
2022/06/09 14:36:38;;;;;;;3.80;3.40;;;;;;;28.85;44.11;99267.81;1679919;85;21117;-60
2022/06/09 14:39:08;;;;;;;4.33;3.10;;;;;;;28.82;44.09;99261.84;1676844;85;21116;-60
2022/06/09 14:41:36;;;;;;;5.30;4.00;;;;;;;28.83;44.16;99259.91;1680303;84;21012;-59
2022/06/09 14:44:04;;;;;;;4.60;3.27;;;;;;;28.81;44.21;99256.10;1662873;85;21086;-60
2022/06/09 14:46:38;;;;;;;3.92;3.37;;;;;;;28.80;44.30;99257.77;1670623;84;21061;-60
2022/06/09 14:49:05;;;;;;;6.45;3.62;;;;;;;28.79;44.33;99262.99;1691493;84;21126;-61
2022/06/09 14:51:32;;;;;;;5.15;3.83;;;;;;;28.77;44.30;99253.72;1694251;84;21603;-61
2022/06/09 14:53:59;;;;;;;6.15;3.50;;;;;;;28.77;44.29;99252.92;1691251;84;21033;-60
2022/06/09 14:56:31;;;;;;;4.37;3.70;;;;;;;28.75;44.33;99254.58;1688337;83;21036;-61
2022/06/09 14:58:58;;;;;;;;;;;;;;;28.73;44.30;99252.70;1639999;86;21133;-60
2022/06/09 15:01:24;;;;;;;4.97;3.25;;;;;;;28.72;44.16;99245.61;1660819;85;22871;-59
2022/06/09 15:03:51;;;;;;;3.60;3.20;;;;;;;28.69;43.86;99241.32;1660229;84;21022;-60
2022/06/09 15:06:19;;;;;;;5.20;3.12;;;;;;;28.67;43.42;99244.34;1712487;82;21034;-59
2022/06/09 15:08:48;;;;;;;3.80;3.30;;;;;;;28.65;43.43;99241.11;1714575;82;21068;-59
2022/06/09 15:11:18;;;;;;;4.87;3.30;;;;;;;28.63;43.50;99244.13;1711665;83;21539;-60
2022/06/09 15:13:47;;;;;;;5.47;3.83;;;;;;;28.60;43.72;99239.25;1718037;82;21209;-60
2022/06/09 15:16:14;;;;;;;5.25;3.80;;;;;;;28.59;43.86;99236.84;1680030;84;21036;-60
2022/06/09 15:18:42;;;;;;;3.83;3.42;;;;;;;28.58;43.99;99235.21;1711168;83;21526;-59
2022/06/09 15:21:10;;;;;;;4.30;3.67;;;;;;;28.56;44.12;99234.14;1676591;84;21064;-59
2022/06/09 15:23:36;;;;;;;4.95;3.40;;;;;;;28.55;44.29;99238.00;1677704;84;21110;-60